KPUW/PUW METAR and TAF weather

Enter ICAO airport designator
Station Type Date Time Source
KPUW METAR 2020/12/01 20:53 UTC NOAA

KPUW 012053Z AUTO VRB05KT 10SM CLR 04/M02 A3056 RMK AO2 SLP371 T00391017 58005


Station Type Date Time Source
KPUW Decoded METAR 2020/12/01 20:53 UTC NOAA

PULLMAN/MOSCOW RGNL AIRPORT , WA, United States (KPUW) 46-45N 117-07W 773M
Dec 01, 2020 - 03:53 PM EST / 2020.12.01 2053 UTC
Wind: Variable at 6 MPH (5 KT):0
Visibility: 10 mile(s):0
Sky conditions: clear
Temperature: 39.0 F (3.9 C)
Dew Point: 28.9 F (-1.7 C)
Relative Humidity: 66%
Pressure (altimeter): 30.56 in. Hg (1034 hPa)
Pressure tendency: 0.01 inches (0.5 hPa) lower than three hours ago
ob: KPUW 012053Z AUTO VRB05KT 10SM CLR 04/M02 A3056 RMK AO2 SLP371 T00391017 58005
cycle: 21

Station Type Date Time Source
KPUW TAF 2020/12/01 18:39 UTC NOAA

TAF KPUW 011739Z 0118/0218 VRB03KT P6SM SKC
FM020800 09007KT P6SM SKC

Example: see airport list